Time;durP1;ratioP1;P1;durP2;ratioP2;P2;SDS_P1;SDS_P2;PMS_P1;PMS_P2;Temp;Humidity;BMP_temperature;BMP_pressure;BME280_temperature;BME280_humidity;BME280_pressure;Samples;Min_cycle;Max_cycle;Signal;HPM_P1;HPM_P2
2021/11/14 00:00:23;;;;;;;28.63;12.80;;;;;;;;;;5062691;28;20114;-59
2021/11/14 00:02:50;;;;;;;26.70;12.38;;;;;;;;;;5054241;28;20032;-59
2021/11/14 00:05:18;;;;;;;29.20;12.07;;;;;;;;;;5050129;28;20049;-59
2021/11/14 00:07:44;;;;;;;30.90;13.60;;;;;;;;;;5048228;28;20044;-59
2021/11/14 00:10:11;;;;;;;26.92;13.75;;;;;;;;;;5059683;28;20033;-59
2021/11/14 00:12:38;;;;;;;30.48;12.05;;;;;;;;;;5051922;28;20029;-59
2021/11/14 00:15:05;;;;;;;25.55;12.80;;;;;;;;;;5077058;28;20041;-59
2021/11/14 00:17:32;;;;;;;24.38;11.63;;;;;;;;;;5059942;28;20036;-59
2021/11/14 00:20:00;;;;;;;28.52;12.20;;;;;;;;;;5057731;28;20033;-60
2021/11/14 00:22:28;;;;;;;25.05;10.85;;;;;;;;;;5038310;28;20168;-59
2021/11/14 00:24:54;;;;;;;27.87;11.93;;;;;;;;;;5042342;28;20041;-59
2021/11/14 00:27:20;;;;;;;23.90;10.93;;;;;;;;;;5041334;28;20049;-58
2021/11/14 00:29:49;;;;;;;25.83;12.10;;;;;;;;;;5044019;28;20037;-59
2021/11/14 00:32:15;;;;;;;30.23;13.68;;;;;;;;;;5061966;28;20049;-59
2021/11/14 00:34:42;;;;;;;27.48;13.50;;;;;;;;;;5037373;28;20040;-59
2021/11/14 00:37:09;;;;;;;27.35;12.10;;;;;;;;;;5042470;28;20113;-59
2021/11/14 00:39:37;;;;;;;24.85;9.85;;;;;;;;;;5038376;28;20066;-59
2021/11/14 00:42:04;;;;;;;26.17;10.07;;;;;;;;;;5041319;28;20071;-59
2021/11/14 00:44:32;;;;;;;20.45;9.55;;;;;;;;;;5038838;28;20045;-59
2021/11/14 00:46:59;;;;;;;22.75;10.00;;;;;;;;;;5040046;28;20048;-59
2021/11/14 00:49:25;;;;;;;25.27;10.18;;;;;;;;;;5046420;28;20045;-59
2021/11/14 00:51:53;;;;;;;23.63;10.48;;;;;;;;;;5058614;28;20041;-58
2021/11/14 00:54:20;;;;;;;23.80;9.73;;;;;;;;;;5058071;28;20025;-59
2021/11/14 00:56:48;;;;;;;18.88;9.30;;;;;;;;;;5061999;28;20037;-59
2021/11/14 00:59:14;;;;;;;22.30;9.93;;;;;;;;;;5056858;28;20049;-59
2021/11/14 01:01:41;;;;;;;19.55;9.00;;;;;;;;;;5057064;28;20041;-59
2021/11/14 01:04:10;;;;;;;22.13;10.13;;;;;;;;;;5056620;28;20049;-58
2021/11/14 01:06:37;;;;;;;21.92;9.52;;;;;;;;;;5058804;28;20048;-58
2021/11/14 01:09:03;;;;;;;19.17;9.07;;;;;;;;;;5039904;28;20037;-58
2021/11/14 01:11:30;;;;;;;23.05;9.93;;;;;;;;;;5038811;28;20044;-58
2021/11/14 01:13:58;;;;;;;19.95;8.82;;;;;;;;;;5060659;28;20053;-59
2021/11/14 01:16:25;;;;;;;21.73;10.07;;;;;;;;;;5039569;28;20045;-59
2021/11/14 01:18:51;;;;;;;20.08;9.18;;;;;;;;;;5040771;28;20036;-59
2021/11/14 01:21:18;;;;;;;25.50;9.95;;;;;;;;;;5051040;28;20045;-59
2021/11/14 01:23:45;;;;;;;20.92;9.38;;;;;;;;;;5059432;28;20040;-60
2021/11/14 01:26:12;;;;;;;19.67;9.10;;;;;;;;;;5057385;28;20048;-59
2021/11/14 01:28:38;;;;;;;24.98;10.30;;;;;;;;;;5060038;28;20090;-59
2021/11/14 01:31:07;;;;;;;25.33;11.20;;;;;;;;;;5068614;28;20095;-59
2021/11/14 01:33:33;;;;;;;24.80;10.73;;;;;;;;;;5039062;28;20197;-58
2021/11/14 01:36:00;;;;;;;22.08;9.50;;;;;;;;;;5035158;28;20045;-59
2021/11/14 01:38:28;;;;;;;24.52;9.65;;;;;;;;;;5040259;28;20089;-59
2021/11/14 01:41:02;;;;;;;25.90;10.32;;;;;;;;;;5040265;28;20045;-58
2021/11/14 01:43:31;;;;;;;21.42;10.00;;;;;;;;;;5060132;28;20051;-59
2021/11/14 01:45:58;;;;;;;23.35;10.15;;;;;;;;;;5055413;28;20044;-58
2021/11/14 01:48:26;;;;;;;27.38;9.45;;;;;;;;;;5043972;28;20037;-59
2021/11/14 01:50:53;;;;;;;22.77;10.20;;;;;;;;;;5041188;28;20112;-59
2021/11/14 01:53:20;;;;;;;24.90;10.20;;;;;;;;;;5044223;28;20065;-60
2021/11/14 01:55:47;;;;;;;22.20;9.90;;;;;;;;;;5043321;28;20040;-59
2021/11/14 01:58:16;;;;;;;23.83;10.32;;;;;;;;;;5040272;28;20092;-59
2021/11/14 02:00:42;;;;;;;;;;;;;;;;;;5042802;28;20162;-59
2021/11/14 02:03:09;;;;;;;18.13;8.45;;;;;;;;;;5051880;28;19921;-59
2021/11/14 02:05:38;;;;;;;20.33;9.68;;;;;;;;;;5062395;28;20096;-59
2021/11/14 02:08:06;;;;;;;24.15;10.00;;;;;;;;;;5045664;28;20049;-59
2021/11/14 02:10:36;;;;;;;24.70;10.05;;;;;;;;;;5042292;28;20037;-59
2021/11/14 02:13:03;;;;;;;22.98;9.95;;;;;;;;;;5040855;28;20029;-60
2021/11/14 02:15:30;;;;;;;28.60;10.27;;;;;;;;;;5043286;28;20056;-59
2021/11/14 02:17:57;;;;;;;25.23;10.40;;;;;;;;;;5049598;28;20047;-57
2021/11/14 02:20:26;;;;;;;22.98;10.15;;;;;;;;;;5063864;28;20052;-59
2021/11/14 02:22:53;;;;;;;22.35;10.15;;;;;;;;;;5053222;28;20052;-60
2021/11/14 02:25:22;;;;;;;22.77;11.02;;;;;;;;;;5046729;28;20059;-60
2021/11/14 02:27:48;;;;;;;;;;;;;;;;;;5041879;28;20073;-59
2021/11/14 02:30:15;;;;;;;21.10;9.13;;;;;;;;;;5054869;28;19936;-59
2021/11/14 02:32:42;;;;;;;22.13;9.30;;;;;;;;;;5075511;28;20048;-59
2021/11/14 02:35:09;;;;;;;22.30;9.90;;;;;;;;;;5066518;28;20036;-59
2021/11/14 02:37:37;;;;;;;21.95;9.52;;;;;;;;;;5061169;28;20036;-60
2021/11/14 02:40:05;;;;;;;21.07;9.63;;;;;;;;;;5061103;28;20126;-59
2021/11/14 02:42:31;;;;;;;22.45;9.10;;;;;;;;;;5062141;28;20089;-59
2021/11/14 02:44:58;;;;;;;22.20;9.57;;;;;;;;;;5059904;28;20041;-59
2021/11/14 02:47:24;;;;;;;24.35;10.30;;;;;;;;;;5061363;28;20079;-60
2021/11/14 02:49:52;;;;;;;22.60;10.50;;;;;;;;;;5042998;28;20053;-59
2021/11/14 02:52:18;;;;;;;21.88;9.32;;;;;;;;;;5058221;28;20037;-57
2021/11/14 02:54:46;;;;;;;22.13;10.07;;;;;;;;;;5059889;28;20044;-59
2021/11/14 02:57:13;;;;;;;22.10;10.00;;;;;;;;;;5064035;28;20057;-59
2021/11/14 02:59:39;;;;;;;25.17;9.80;;;;;;;;;;5057100;28;20296;-59
2021/11/14 03:02:18;;;;;;;25.67;10.02;;;;;;;;;;5096069;22;20065;-59
2021/11/14 03:04:45;;;;;;;21.13;9.57;;;;;;;;;;4967715;28;20095;-58
2021/11/14 03:07:12;;;;;;;24.10;9.75;;;;;;;;;;5007865;28;20041;-58
2021/11/14 03:09:39;;;;;;;21.63;9.82;;;;;;;;;;5017182;28;20076;-57
2021/11/14 03:12:17;;;;;;;24.98;10.82;;;;;;;;;;5021678;28;20030;-58
2021/11/14 03:14:44;;;;;;;22.05;9.35;;;;;;;;;;5017247;28;20052;-58
2021/11/14 03:17:10;;;;;;;25.02;10.23;;;;;;;;;;5022983;28;20040;-58
2021/11/14 03:19:37;;;;;;;23.38;10.43;;;;;;;;;;5026692;28;20387;-59
2021/11/14 03:22:12;;;;;;;25.52;10.57;;;;;;;;;;5031243;28;20041;-57
2021/11/14 03:24:40;;;;;;;21.30;9.63;;;;;;;;;;5027953;28;20033;-57
2021/11/14 03:27:07;;;;;;;23.45;10.27;;;;;;;;;;5039967;28;20055;-58
2021/11/14 03:29:35;;;;;;;24.60;10.10;;;;;;;;;;5028298;28;20041;-58
2021/11/14 03:32:11;;;;;;;24.73;10.47;;;;;;;;;;5023317;28;20061;-57
2021/11/14 03:34:37;;;;;;;22.05;9.55;;;;;;;;;;5032262;28;20282;-58
2021/11/14 03:37:11;;;;;;;24.80;10.73;;;;;;;;;;5048461;28;20041;-58
2021/11/14 03:39:37;;;;;;;25.50;10.57;;;;;;;;;;5044680;28;20037;-58
2021/11/14 03:42:10;;;;;;;25.70;10.13;;;;;;;;;;5044805;28;20482;-58
2021/11/14 03:44:38;;;;;;;27.75;10.98;;;;;;;;;;5001195;28;20058;-58
2021/11/14 03:47:05;;;;;;;23.80;10.20;;;;;;;;;;5008863;28;20033;-57
2021/11/14 03:49:32;;;;;;;25.73;10.63;;;;;;;;;;5022314;28;20299;-58
2021/11/14 03:52:06;;;;;;;27.33;10.55;;;;;;;;;;5025349;28;20084;-57
2021/11/14 03:54:33;;;;;;;24.50;11.13;;;;;;;;;;5036888;28;20101;-57
2021/11/14 03:56:59;;;;;;;23.15;10.65;;;;;;;;;;5006108;28;20038;-58
2021/11/14 03:59:26;;;;;;;28.30;11.93;;;;;;;;;;5023720;28;20037;-57
2021/11/14 04:01:58;;;;;;;30.20;11.02;;;;;;;;;;5011922;28;20046;-58
2021/11/14 04:04:25;;;;;;;25.17;10.43;;;;;;;;;;5005851;28;20116;-57
2021/11/14 04:06:51;;;;;;;27.08;11.52;;;;;;;;;;5013503;28;20033;-56
2021/11/14 04:09:18;;;;;;;30.13;10.75;;;;;;;;;;5027093;28;20033;-58
2021/11/14 04:11:45;;;;;;;23.02;10.13;;;;;;;;;;5022078;28;20057;-57
2021/11/14 04:14:11;;;;;;;31.52;11.63;;;;;;;;;;5027853;28;20033;-58
2021/11/14 04:16:38;;;;;;;28.30;12.07;;;;;;;;;;5041409;28;20029;-57
2021/11/14 04:19:07;;;;;;;31.17;11.73;;;;;;;;;;5027198;28;20048;-57
2021/11/14 04:21:48;;;;;;;29.65;12.15;;;;;;;;;;5027207;28;20041;-57
2021/11/14 04:24:15;;;;;;;27.08;10.85;;;;;;;;;;5007133;28;20054;-58
2021/11/14 04:26:41;;;;;;;33.95;11.82;;;;;;;;;;5009574;28;20070;-58
2021/11/14 04:29:08;;;;;;;30.42;12.43;;;;;;;;;;5024548;28;20040;-58
2021/11/14 04:31:36;;;;;;;25.60;10.45;;;;;;;;;;5035623;28;20041;-59
2021/11/14 04:34:04;;;;;;;32.85;11.77;;;;;;;;;;5025915;28;20142;-58
2021/11/14 04:36:32;;;;;;;30.77;11.68;;;;;;;;;;5027288;28;20066;-57
2021/11/14 04:38:58;;;;;;;31.70;12.00;;;;;;;;;;5033489;28;20118;-58
2021/11/14 04:41:26;;;;;;;29.95;12.32;;;;;;;;;;5060553;28;20049;-58
2021/11/14 04:43:52;;;;;;;31.90;13.02;;;;;;;;;;5036918;28;20045;-58
2021/11/14 04:46:19;;;;;;;34.90;12.70;;;;;;;;;;5042982;28;20022;-58
2021/11/14 04:48:45;;;;;;;33.10;12.25;;;;;;;;;;5037966;28;20034;-60
2021/11/14 04:51:34;;;;;;;28.65;12.25;;;;;;;;;;5043213;28;20025;-58
2021/11/14 04:54:01;;;;;;;29.13;12.48;;;;;;;;;;5040679;28;20037;-58
2021/11/14 04:56:29;;;;;;;28.57;11.43;;;;;;;;;;5037075;28;20029;-57
2021/11/14 04:58:55;;;;;;;36.97;12.43;;;;;;;;;;5055777;28;20062;-57
2021/11/14 05:01:24;;;;;;;30.23;11.73;;;;;;;;;;5043704;28;20052;-57
2021/11/14 05:03:51;;;;;;;34.47;11.63;;;;;;;;;;5043057;28;20034;-57
2021/11/14 05:06:17;;;;;;;30.17;11.43;;;;;;;;;;4987695;28;20067;-57
2021/11/14 05:08:44;;;;;;;30.75;12.13;;;;;;;;;;4970597;28;20033;-58
2021/11/14 05:11:15;;;;;;;28.40;12.25;;;;;;;;;;5023633;28;20034;-58
2021/11/14 05:13:42;;;;;;;31.63;12.40;;;;;;;;;;5002814;28;20038;-58
2021/11/14 05:16:08;;;;;;;29.85;11.15;;;;;;;;;;5003470;28;20034;-58
2021/11/14 05:18:35;;;;;;;32.63;12.10;;;;;;;;;;5023594;28;20037;-58
2021/11/14 05:21:02;;;;;;;32.40;11.52;;;;;;;;;;5023293;28;20052;-58
2021/11/14 05:23:28;;;;;;;30.25;11.55;;;;;;;;;;5026340;28;20065;-57
2021/11/14 05:25:55;;;;;;;31.55;11.63;;;;;;;;;;5012006;28;20037;-58
2021/11/14 05:28:23;;;;;;;34.03;12.52;;;;;;;;;;5027095;28;20034;-57
2021/11/14 05:30:52;;;;;;;31.65;12.10;;;;;;;;;;5023089;28;20062;-57
2021/11/14 05:33:19;;;;;;;31.33;12.07;;;;;;;;;;5023286;28;20034;-57
2021/11/14 05:35:46;;;;;;;32.28;11.93;;;;;;;;;;5021418;28;20038;-58
2021/11/14 05:38:13;;;;;;;30.23;10.82;;;;;;;;;;5026076;28;20045;-58
2021/11/14 05:40:43;;;;;;;31.25;11.43;;;;;;;;;;5022799;28;20033;-57
2021/11/14 05:43:10;;;;;;;35.05;12.32;;;;;;;;;;5027115;28;20042;-58
2021/11/14 05:45:38;;;;;;;33.67;11.55;;;;;;;;;;5023366;28;20129;-57
2021/11/14 05:48:05;;;;;;;29.40;11.97;;;;;;;;;;5010307;28;20120;-57
2021/11/14 05:50:32;;;;;;;31.63;12.23;;;;;;;;;;5023217;28;20123;-57
2021/11/14 05:52:59;;;;;;;32.13;12.13;;;;;;;;;;5025718;28;20103;-58
2021/11/14 05:55:25;;;;;;;31.40;12.18;;;;;;;;;;5023294;28;20062;-58
2021/11/14 05:57:55;;;;;;;30.90;11.98;;;;;;;;;;5026229;28;20030;-57
2021/11/14 06:00:28;;;;;;;31.75;11.43;;;;;;;;;;5030127;28;20034;-58
2021/11/14 06:03:00;;;;;;;36.50;11.98;;;;;;;;;;5014030;28;20096;-58
2021/11/14 06:05:29;;;;;;;31.83;11.57;;;;;;;;;;5044870;28;20052;-57
2021/11/14 06:07:55;;;;;;;30.38;11.90;;;;;;;;;;5043237;28;20065;-57
2021/11/14 06:10:24;;;;;;;32.65;12.27;;;;;;;;;;5039793;28;20110;-56
2021/11/14 06:12:51;;;;;;;30.60;12.40;;;;;;;;;;5045216;28;20105;-57
2021/11/14 06:15:20;;;;;;;30.23;12.25;;;;;;;;;;5027337;28;20041;-58
2021/11/14 06:17:47;;;;;;;34.10;13.07;;;;;;;;;;5026396;28;20037;-58
2021/11/14 06:20:17;;;;;;;34.45;12.57;;;;;;;;;;5029034;28;20034;-58
2021/11/14 06:22:44;;;;;;;32.20;12.65;;;;;;;;;;5052220;28;20086;-57
2021/11/14 06:25:11;;;;;;;30.15;11.45;;;;;;;;;;5066564;28;20037;-57
2021/11/14 06:27:39;;;;;;;34.05;12.60;;;;;;;;;;5044664;28;20076;-57
2021/11/14 06:30:11;;;;;;;29.17;11.48;;;;;;;;;;5066255;28;20033;-58
2021/11/14 06:32:38;;;;;;;28.80;12.15;;;;;;;;;;5041954;28;20041;-57
2021/11/14 06:35:05;;;;;;;28.90;11.25;;;;;;;;;;5026296;28;20045;-58
2021/11/14 06:37:33;;;;;;;34.20;13.15;;;;;;;;;;5028132;28;20041;-57
2021/11/14 06:40:07;;;;;;;34.83;11.93;;;;;;;;;;5047108;28;20040;-57
2021/11/14 06:42:34;;;;;;;28.13;12.13;;;;;;;;;;5040639;28;20037;-57
2021/11/14 06:45:00;;;;;;;29.05;11.63;;;;;;;;;;5026772;28;20052;-57
2021/11/14 06:47:27;;;;;;;29.38;10.80;;;;;;;;;;5025779;28;20049;-57
2021/11/14 06:49:54;;;;;;;30.52;11.60;;;;;;;;;;5026704;28;20049;-58
2021/11/14 06:52:22;;;;;;;33.72;11.77;;;;;;;;;;5028688;28;20021;-57
2021/11/14 06:54:50;;;;;;;31.37;11.63;;;;;;;;;;5040638;28;20053;-58
2021/11/14 06:57:18;;;;;;;28.20;11.00;;;;;;;;;;5044777;28;20118;-57
2021/11/14 06:59:44;;;;;;;28.93;11.30;;;;;;;;;;5043492;28;20131;-57
2021/11/14 07:02:11;;;;;;;35.17;12.68;;;;;;;;;;5029238;28;20119;-57
2021/11/14 07:04:38;;;;;;;29.08;10.27;;;;;;;;;;5019146;28;20033;-56
2021/11/14 07:07:05;;;;;;;36.40;12.90;;;;;;;;;;5008699;28;20119;-58
2021/11/14 07:09:31;;;;;;;29.17;11.73;;;;;;;;;;5015090;28;20026;-57
2021/11/14 07:12:05;;;;;;;29.25;11.00;;;;;;;;;;5029842;28;20044;-58
2021/11/14 07:14:32;;;;;;;30.65;11.13;;;;;;;;;;5041608;28;20037;-58
2021/11/14 07:17:00;;;;;;;31.73;11.65;;;;;;;;;;5046720;28;20111;-58
2021/11/14 07:19:27;;;;;;;29.42;11.00;;;;;;;;;;5036113;28;20047;-57
2021/11/14 07:21:56;;;;;;;30.08;11.07;;;;;;;;;;5008678;28;20034;-57
2021/11/14 07:24:23;;;;;;;34.03;11.18;;;;;;;;;;5023781;28;20058;-58
2021/11/14 07:26:49;;;;;;;24.88;10.25;;;;;;;;;;5009092;28;20048;-58
2021/11/14 07:29:17;;;;;;;27.13;9.77;;;;;;;;;;5023965;28;20041;-58
2021/11/14 07:31:52;;;;;;;29.08;10.80;;;;;;;;;;5044163;28;20034;-58
2021/11/14 07:34:19;;;;;;;27.13;9.88;;;;;;;;;;5007598;28;20033;-58
2021/11/14 07:36:45;;;;;;;28.02;10.13;;;;;;;;;;5023304;28;20034;-58
2021/11/14 07:39:12;;;;;;;25.63;9.50;;;;;;;;;;5012926;28;20046;-59
2021/11/14 07:41:50;;;;;;;29.92;10.30;;;;;;;;;;5003029;28;20041;-58
2021/11/14 07:44:19;;;;;;;25.60;9.48;;;;;;;;;;5019222;28;20034;-58
2021/11/14 07:46:45;;;;;;;27.63;9.13;;;;;;;;;;5005939;28;20030;-58
2021/11/14 07:49:12;;;;;;;27.13;8.65;;;;;;;;;;5005300;28;20038;-58
2021/11/14 07:51:40;;;;;;;29.65;9.48;;;;;;;;;;5024175;28;20105;-58
2021/11/14 07:54:06;;;;;;;26.97;9.10;;;;;;;;;;5024488;28;20042;-58
2021/11/14 07:56:33;;;;;;;23.88;8.85;;;;;;;;;;5008551;28;20421;-58
2021/11/14 07:58:59;;;;;;;23.17;8.98;;;;;;;;;;5008265;28;20127;-59
2021/11/14 08:01:28;;;;;;;25.25;8.43;;;;;;;;;;5005285;28;20041;-57
2021/11/14 08:03:54;;;;;;;28.30;8.75;;;;;;;;;;5007568;28;20061;-57
2021/11/14 08:06:21;;;;;;;25.65;9.07;;;;;;;;;;5004328;28;20033;-58
2021/11/14 08:08:48;;;;;;;22.88;8.82;;;;;;;;;;5006407;28;20045;-57
2021/11/14 08:11:16;;;;;;;25.50;9.15;;;;;;;;;;5001768;28;20056;-58
2021/11/14 08:13:42;;;;;;;26.48;9.73;;;;;;;;;;5007882;28;20105;-57
2021/11/14 08:16:09;;;;;;;27.10;9.20;;;;;;;;;;5005006;28;20103;-58
2021/11/14 08:18:37;;;;;;;25.83;8.77;;;;;;;;;;5007950;28;20085;-57
2021/11/14 08:21:08;;;;;;;25.80;9.33;;;;;;;;;;5001352;28;20044;-58
2021/11/14 08:23:34;;;;;;;27.38;9.70;;;;;;;;;;5007563;28;20418;-57
2021/11/14 08:26:01;;;;;;;30.90;8.38;;;;;;;;;;5024365;28;20041;-58
2021/11/14 08:28:27;;;;;;;21.13;8.00;;;;;;;;;;5005805;28;20072;-57
2021/11/14 08:30:54;;;;;;;22.77;8.75;;;;;;;;;;5008730;28;20038;-57
2021/11/14 08:33:21;;;;;;;26.65;9.02;;;;;;;;;;5001057;28;20065;-58
2021/11/14 08:35:49;;;;;;;29.73;8.63;;;;;;;;;;5005364;28;20085;-57
2021/11/14 08:38:15;;;;;;;23.47;8.30;;;;;;;;;;5004575;28;20049;-57
2021/11/14 08:40:54;;;;;;;26.75;9.80;;;;;;;;;;5009397;28;20053;-57
2021/11/14 08:43:21;;;;;;;24.42;8.55;;;;;;;;;;4998883;28;20042;-58
2021/11/14 08:45:47;;;;;;;28.75;8.65;;;;;;;;;;5007707;28;20070;-56
2021/11/14 08:48:14;;;;;;;25.05;9.23;;;;;;;;;;5002980;28;20033;-57
2021/11/14 08:50:41;;;;;;;24.50;8.48;;;;;;;;;;5006201;28;20038;-58
2021/11/14 08:53:09;;;;;;;24.45;8.95;;;;;;;;;;5002541;28;20119;-58
2021/11/14 08:55:36;;;;;;;23.70;8.43;;;;;;;;;;5007109;28;20030;-58
2021/11/14 08:58:02;;;;;;;20.38;7.93;;;;;;;;;;5007807;28;20040;-58
2021/11/14 09:00:32;;;;;;;23.75;9.18;;;;;;;;;;5010738;28;20112;-58
2021/11/14 09:03:00;;;;;;;24.38;8.38;;;;;;;;;;5031979;28;20069;-58
2021/11/14 09:05:27;;;;;;;21.13;8.00;;;;;;;;;;5046045;28;20029;-58
2021/11/14 09:07:56;;;;;;;22.92;8.38;;;;;;;;;;5022595;28;20053;-57
2021/11/14 09:10:44;;;;;;;20.00;7.28;;;;;;;;;;5025694;28;20037;-57
2021/11/14 09:13:13;;;;;;;22.20;7.72;;;;;;;;;;5022217;28;20057;-58
2021/11/14 09:15:39;;;;;;;28.05;7.80;;;;;;;;;;5049454;28;20033;-58
2021/11/14 09:18:06;;;;;;;22.33;7.85;;;;;;;;;;5066567;28;20045;-58
2021/11/14 09:20:35;;;;;;;21.27;8.27;;;;;;;;;;5027092;28;20105;-58
2021/11/14 09:23:02;;;;;;;19.00;6.80;;;;;;;;;;5029763;28;20030;-57
2021/11/14 09:25:29;;;;;;;21.55;7.80;;;;;;;;;;5041286;28;20051;-58
2021/11/14 09:27:56;;;;;;;22.75;8.55;;;;;;;;;;5066909;28;20114;-58
2021/11/14 09:30:24;;;;;;;22.08;8.68;;;;;;;;;;5058472;28;20085;-58
2021/11/14 09:32:51;;;;;;;21.90;8.48;;;;;;;;;;5050033;28;20048;-58
2021/11/14 09:35:17;;;;;;;20.33;7.05;;;;;;;;;;5050627;28;20033;-58
2021/11/14 09:37:44;;;;;;;20.35;7.63;;;;;;;;;;5028194;28;20025;-57
2021/11/14 09:40:12;;;;;;;23.65;8.77;;;;;;;;;;5026402;28;20047;-58
2021/11/14 09:42:39;;;;;;;21.63;8.45;;;;;;;;;;5029239;28;20118;-57
2021/11/14 09:45:08;;;;;;;20.75;7.65;;;;;;;;;;5026137;28;20037;-58
2021/11/14 09:47:34;;;;;;;;;;;;;;;;;;5030598;28;20037;-58
2021/11/14 09:50:05;;;;;;;26.52;7.32;;;;;;;;;;5025428;28;19921;-58
2021/11/14 09:52:32;;;;;;;19.98;7.03;;;;;;;;;;5029590;28;20118;-58
2021/11/14 09:54:59;;;;;;;20.27;6.75;;;;;;;;;;5026016;28;20269;-57
2021/11/14 09:57:26;;;;;;;20.48;8.00;;;;;;;;;;5046924;28;20127;-57
2021/11/14 09:59:53;;;;;;;20.05;7.13;;;;;;;;;;5028143;28;20069;-58
2021/11/14 10:02:19;;;;;;;25.88;7.43;;;;;;;;;;5027721;28;20108;-57
2021/11/14 10:04:46;;;;;;;22.77;7.82;;;;;;;;;;5024893;28;20123;-58
2021/11/14 10:07:15;;;;;;;21.08;7.93;;;;;;;;;;5021331;28;20049;-58
2021/11/14 10:09:44;;;;;;;21.38;8.32;;;;;;;;;;5027749;28;20115;-58
2021/11/14 10:12:12;;;;;;;25.25;8.27;;;;;;;;;;5014148;28;20049;-57
2021/11/14 10:14:38;;;;;;;19.50;6.35;;;;;;;;;;5045639;28;20076;-58
2021/11/14 10:17:13;;;;;;;17.77;6.63;;;;;;;;;;5012706;28;20033;-58
2021/11/14 10:19:40;;;;;;;25.52;8.57;;;;;;;;;;5026162;28;20037;-58
2021/11/14 10:22:07;;;;;;;23.83;8.63;;;;;;;;;;5019888;28;20123;-58
2021/11/14 10:24:35;;;;;;;22.90;8.52;;;;;;;;;;5005254;28;20053;-58
2021/11/14 10:27:10;;;;;;;22.57;7.70;;;;;;;;;;5003850;28;20034;-58
2021/11/14 10:29:39;;;;;;;19.02;7.35;;;;;;;;;;5005184;28;20275;-58
2021/11/14 10:32:05;;;;;;;;;;;;;;;;;;5015744;28;20049;-58
2021/11/14 10:34:32;;;;;;;20.67;7.07;;;;;;;;;;5014609;28;19917;-58
2021/11/14 10:36:59;;;;;;;23.65;8.02;;;;;;;;;;5007116;28;20052;-58
2021/11/14 10:39:26;;;;;;;18.88;7.03;;;;;;;;;;5041960;28;20044;-57
2021/11/14 10:41:58;;;;;;;21.88;7.47;;;;;;;;;;5021276;28;20034;-58
2021/11/14 10:44:25;;;;;;;21.60;7.93;;;;;;;;;;5025776;28;20038;-58
2021/11/14 10:46:51;;;;;;;19.92;7.40;;;;;;;;;;5016949;28;20096;-58
2021/11/14 10:49:18;;;;;;;23.25;8.43;;;;;;;;;;5001848;28;20102;-60
2021/11/14 10:51:45;;;;;;;19.40;8.27;;;;;;;;;;5017956;28;20061;-59
2021/11/14 10:54:12;;;;;;;20.40;7.65;;;;;;;;;;5004430;28;20131;-59
2021/11/14 10:56:38;;;;;;;21.20;7.80;;;;;;;;;;5024554;28;20087;-58
2021/11/14 10:59:07;;;;;;;19.90;7.70;;;;;;;;;;5019863;28;20037;-59
2021/11/14 11:01:40;;;;;;;20.70;7.78;;;;;;;;;;5009396;28;20042;-58
2021/11/14 11:04:08;;;;;;;21.25;7.68;;;;;;;;;;5028768;28;20073;-59
2021/11/14 11:06:34;;;;;;;27.00;9.60;;;;;;;;;;5044630;28;20029;-58
2021/11/14 11:09:02;;;;;;;20.20;8.60;;;;;;;;;;5058277;28;20048;-58
2021/11/14 11:11:36;;;;;;;22.25;7.90;;;;;;;;;;5044442;28;20041;-58
2021/11/14 11:14:03;;;;;;;20.40;7.15;;;;;;;;;;5025223;28;20044;-58
2021/11/14 11:16:32;;;;;;;22.60;7.85;;;;;;;;;;5028268;28;20037;-58
2021/11/14 11:18:59;;;;;;;22.67;8.13;;;;;;;;;;5024071;28;20039;-59
2021/11/14 11:21:28;;;;;;;21.33;8.00;;;;;;;;;;5028408;28;20053;-59
2021/11/14 11:24:04;;;;;;;21.63;8.65;;;;;;;;;;5024174;28;20077;-58
2021/11/14 11:26:31;;;;;;;18.85;7.32;;;;;;;;;;5036305;28;20396;-59
2021/11/14 11:28:57;;;;;;;24.20;8.52;;;;;;;;;;5024031;28;20045;-59
2021/11/14 11:31:34;;;;;;;21.90;8.10;;;;;;;;;;5045665;28;20041;-58
2021/11/14 11:34:00;;;;;;;20.70;7.45;;;;;;;;;;5037872;28;20037;-58
2021/11/14 11:36:28;;;;;;;23.58;9.13;;;;;;;;;;5055635;28;20037;-58
2021/11/14 11:38:55;;;;;;;21.35;8.48;;;;;;;;;;5022532;28;20056;-58
2021/11/14 11:41:27;;;;;;;18.08;7.53;;;;;;;;;;5044634;28;20029;-58
2021/11/14 11:43:56;;;;;;;18.38;7.60;;;;;;;;;;5059564;28;20040;-58
2021/11/14 11:46:29;;;;;;;18.15;7.30;;;;;;;;;;5026086;28;20073;-58
2021/11/14 11:48:58;;;;;;;20.65;8.02;;;;;;;;;;5044399;28;20065;-59
2021/11/14 11:51:29;;;;;;;23.33;8.73;;;;;;;;;;5053162;28;20077;-58
2021/11/14 11:53:57;;;;;;;20.75;8.23;;;;;;;;;;5044146;28;20033;-58
2021/11/14 11:56:34;;;;;;;23.40;8.25;;;;;;;;;;5032835;28;20033;-58
2021/11/14 11:59:01;;;;;;;23.90;9.85;;;;;;;;;;5026193;28;20037;-58
2021/11/14 12:01:35;;;;;;;29.67;9.05;;;;;;;;;;5028959;28;20039;-59
2021/11/14 12:04:12;;;;;;;21.52;8.60;;;;;;;;;;5036988;28;20038;-58
2021/11/14 12:06:41;;;;;;;20.63;7.68;;;;;;;;;;5022134;28;20037;-57
2021/11/14 12:09:09;;;;;;;20.48;8.02;;;;;;;;;;5025433;28;20046;-59
2021/11/14 12:11:39;;;;;;;21.05;8.27;;;;;;;;;;5033134;28;20037;-59
2021/11/14 12:14:14;;;;;;;26.77;9.75;;;;;;;;;;5028213;28;20049;-58
2021/11/14 12:16:40;;;;;;;25.10;8.27;;;;;;;;;;5032830;28;20041;-58
2021/11/14 12:19:19;;;;;;;20.90;8.15;;;;;;;;;;5044567;28;20034;-58
2021/11/14 12:24:50;;;;;;;24.45;9.13;;;;;;;;;;5116315;27;20573;-59
2021/11/14 12:27:23;;;;;;;23.92;8.70;;;;;;;;;;5077966;28;20052;-59
2021/11/14 12:29:56;;;;;;;22.20;8.02;;;;;;;;;;5076442;28;20121;-59
2021/11/14 12:32:29;;;;;;;23.50;8.00;;;;;;;;;;5057553;28;20029;-60
2021/11/14 12:35:00;;;;;;;26.33;8.82;;;;;;;;;;5058551;28;20032;-60
2021/11/14 12:37:27;;;;;;;23.52;8.65;;;;;;;;;;5039214;28;20478;-60
2021/11/14 12:40:09;;;;;;;25.02;8.75;;;;;;;;;;5073250;28;20513;-60
2021/11/14 12:42:36;;;;;;;20.48;7.72;;;;;;;;;;5071992;28;20048;-59
2021/11/14 12:45:04;;;;;;;21.73;8.25;;;;;;;;;;5077237;28;20068;-60
2021/11/14 12:47:38;;;;;;;28.13;10.00;;;;;;;;;;5088608;28;20036;-60
2021/11/14 12:50:07;;;;;;;22.80;8.50;;;;;;;;;;5075335;28;20048;-59
2021/11/14 12:52:33;;;;;;;;;;;;;;;;;;5090473;28;20053;-59
2021/11/14 12:55:03;;;;;;;24.27;7.25;;;;;;;;;;5076831;28;19927;-60
2021/11/14 12:57:39;;;;;;;19.70;7.70;;;;;;;;;;5088809;28;20096;-60
2021/11/14 13:00:07;;;;;;;23.27;8.57;;;;;;;;;;5059426;28;20116;-60
2021/11/14 13:02:33;;;;;;;23.70;8.48;;;;;;;;;;5050799;28;20033;-60
2021/11/14 13:05:07;;;;;;;22.05;8.50;;;;;;;;;;5056830;28;20075;-60
2021/11/14 13:07:35;;;;;;;17.90;8.20;;;;;;;;;;5056158;28;20063;-59
2021/11/14 13:10:14;;;;;;;24.05;8.13;;;;;;;;;;5059594;28;20056;-60
2021/11/14 13:12:44;;;;;;;20.63;7.40;;;;;;;;;;5053987;28;20134;-60
2021/11/14 13:15:11;;;;;;;20.40;7.75;;;;;;;;;;5059606;28;20041;-60
2021/11/14 13:17:42;;;;;;;20.17;8.75;;;;;;;;;;5056179;28;20040;-60
2021/11/14 13:20:13;;;;;;;17.08;6.82;;;;;;;;;;5061430;28;20122;-60
2021/11/14 13:22:41;;;;;;;20.55;7.70;;;;;;;;;;5092953;28;20044;-60
2021/11/14 13:25:09;;;;;;;19.98;8.30;;;;;;;;;;5088308;28;20118;-60
2021/11/14 13:27:36;;;;;;;20.27;7.93;;;;;;;;;;5092955;28;20036;-60
2021/11/14 13:30:03;;;;;;;19.45;8.18;;;;;;;;;;5074086;28;20060;-60
2021/11/14 13:32:32;;;;;;;23.65;8.23;;;;;;;;;;5093381;28;20044;-60
2021/11/14 13:34:59;;;;;;;19.27;7.82;;;;;;;;;;5054493;28;20182;-60
2021/11/14 13:37:30;;;;;;;20.25;7.70;;;;;;;;;;5050962;28;20040;-60
2021/11/14 13:40:05;;;;;;;19.55;8.13;;;;;;;;;;5047497;28;20037;-60
2021/11/14 13:42:33;;;;;;;24.80;8.75;;;;;;;;;;5027399;28;20072;-60
2021/11/14 13:45:01;;;;;;;20.65;8.65;;;;;;;;;;5051054;28;20040;-60
2021/11/14 13:47:29;;;;;;;21.02;8.48;;;;;;;;;;5037511;28;20032;-60
2021/11/14 13:49:57;;;;;;;18.73;8.23;;;;;;;;;;5033550;28;20063;-60
2021/11/14 13:52:25;;;;;;;19.50;8.10;;;;;;;;;;5045461;28;20033;-60
2021/11/14 13:54:52;;;;;;;19.77;8.25;;;;;;;;;;5050610;28;20040;-60
2021/11/14 13:57:20;;;;;;;15.82;7.57;;;;;;;;;;5065599;28;20129;-60
2021/11/14 13:59:48;;;;;;;18.83;8.00;;;;;;;;;;5060045;28;20048;-60
2021/11/14 14:02:15;;;;;;;17.17;6.18;;;;;;;;;;5064717;28;20114;-60
2021/11/14 14:04:56;;;;;;;20.13;7.90;;;;;;;;;;5057972;28;20064;-60
2021/11/14 14:07:22;;;;;;;21.77;7.97;;;;;;;;;;5044823;28;20036;-60
2021/11/14 14:09:56;;;;;;;16.50;6.85;;;;;;;;;;5076180;28;20048;-60
2021/11/14 14:12:23;;;;;;;17.38;7.28;;;;;;;;;;5062113;28;20043;-60
2021/11/14 14:14:51;;;;;;;17.00;7.03;;;;;;;;;;5059353;28;20064;-60
2021/11/14 14:17:17;;;;;;;16.83;7.35;;;;;;;;;;5061938;28;20135;-59
2021/11/14 14:19:44;;;;;;;21.80;7.93;;;;;;;;;;5045928;28;20143;-60
2021/11/14 14:22:11;;;;;;;16.35;7.35;;;;;;;;;;5044912;28;20092;-60
2021/11/14 14:24:45;;;;;;;19.48;8.43;;;;;;;;;;5041910;28;20088;-60
2021/11/14 14:27:15;;;;;;;18.33;8.02;;;;;;;;;;5038728;28;20053;-60
2021/11/14 14:29:42;;;;;;;17.15;7.25;;;;;;;;;;5042271;28;20073;-59
2021/11/14 14:32:15;;;;;;;18.30;7.47;;;;;;;;;;5048836;28;20130;-60
2021/11/14 14:34:42;;;;;;;23.88;8.60;;;;;;;;;;5067794;28;20093;-60